This is the latest recevied weather packets stored in our database for station/object LKLN. If no packets are shown the sender has not sent any weather packets the latest 1 day(s).
| Time | Temp. | Humidity | Pressure | Rain* | Wind** | Luminosity | Snow |
|---|---|---|---|---|---|---|---|
| 1778018285 | 12.78° C | 100% | 1007 hPa | - | 2.24 m/s, 250° | - | - |
| 1778016483 | 12.78° C | 100% | 1007 hPa | - | 2.68 m/s, 280° | - | - |
| 1778014684 | 12.78° C | 100% | 1007 hPa | - | 2.68 m/s, 270° | - | - |
| 1778012884 | 13.89° C | 100% | 1007 hPa | - | 1.34 m/s, 260° | - | - |
| 1778011084 | 12.78° C | 100% | 1006 hPa | - | 0.89 m/s, 0° | - | - |
| 1778009285 | 13.89° C | 100% | 1006 hPa | - | 2.68 m/s, 320° | - | - |
| 1778008398 | 13.89° C | 100% | 1006 hPa | - | 2.24 m/s, 0° | - | - |
| 1778007484 | 15° C | 93% | 1005 hPa | - | 3.58 m/s, 280° | - | - |
| 1778007018 | 15° C | 93% | 1005 hPa | - | 4.02 m/s, 270° | - | - |
| 1778006824 | 15° C | 93% | 1005 hPa | - | 4.02 m/s, 260° | - | - |
| 1778005744 | 17.22° C | 82% | 1005 hPa | - | 6.26 m/s, 200° | - | - |
| 1778005023 | 16.11° C | 87% | 1005 hPa | - | 5.36 m/s, 190° | - | - |
| 1778003885 | 17.22° C | 77% | 1004 hPa | - | 2.68 m/s, 40° | - | - |
| 1778002092 | 17.22° C | 82% | 1004 hPa | - | 2.68 m/s, 30° | - | - |
| 1778000717 | 18.89° C | 68% | 1004 hPa | - | 1.34 m/s, 100° | - | - |
| 1778000285 | 20° C | 60% | 1004 hPa | - | 2.24 m/s, 0° | - | - |
| 1777998484 | 22.22° C | 46% | 1004 hPa | - | 3.13 m/s, 360° | - | - |
| 1777996685 | 23.89° C | 38% | 1004 hPa | - | 4.02 m/s, 70° | - | - |
| 1777994884 | 25° C | 27% | 1004 hPa | - | 1.34 m/s, 0° | - | - |
| 1777993085 | 25° C | 27% | 1004 hPa | - | 1.34 m/s, 200° | - | - |
| 1777991284 | 26.11° C | 27% | 1004 hPa | - | 0.89 m/s, 0° | - | - |
| 1777989485 | 26.11° C | 27% | 1005 hPa | - | 3.13 m/s, 170° | - | - |
| 1777987685 | 25° C | 29% | 1005 hPa | - | 2.24 m/s, 0° | - | - |
| 1777985884 | 25° C | 33% | 1006 hPa | - | 2.24 m/s, 70° | - | - |
| 1777984084 | 23.89° C | 36% | 1006 hPa | - | 2.24 m/s, 110° | - | - |
* Rain since midnight (hover to see other rain measurements)
** Current wind speed in m/s (hover to see current wind gust speed)